SBPK/PET METAR and TAF weather

Enter ICAO airport designator
Station Type Date Time Source
SBPK METAR 2022/01/29 01:15 UTC NOAA

SBPK 290115Z 11005KT CAVOK 20/16 Q1015


Station Type Date Time Source
SBPK Decoded METAR 2022/01/29 01:15 UTC NOAA

Pelotas, Brazil (SBPK) 31-52S 052-21W 13M
Jan 28, 2022 - 08:15 PM EST / 2022.01.29 0115 UTC
Wind: from the ESE (110 degrees) at 6 MPH (5 KT):0
Visibility: greater than 7 mile(s):0
Temperature: 68 F (20 C)
Dew Point: 60 F (16 C)
Relative Humidity: 77%
Pressure (altimeter): 29.97 in. Hg (1015 hPa)
ob: SBPK 290115Z 11005KT CAVOK 20/16 Q1015
cycle: 1

Station Type Date Time Source
SBPK TAF 2022/01/28 18:03 UTC NOAA

TAF SBPK 281500Z 2818/2918 15010KT 9999 SCT040 TN20/2909Z TX26/2917Z
RMK PEU

Example: see airport list